KAKH/AKH METAR and TAF weather

Enter ICAO airport designator
Station Type Date Time Source
KAKH METAR 2019/04/26 03:54 UTC NOAA

KAKH 260354Z AUTO 20003KT 10SM SCT050 SCT075 20/14 A2983 RMK AO2 SLP095 T02000144


Station Type Date Time Source
KAKH Decoded METAR 2019/04/26 03:54 UTC NOAA

GASTONIA MUNICIPAL AIRPORT, NC, United States (KAKH) 35-12N 81-09W 243M
Apr 25, 2019 - 11:54 PM EDT / 2019.04.26 0354 UTC
Wind: from the SSW (200 degrees) at 3 MPH (3 KT):0
Visibility: 10 mile(s):0
Sky conditions: partly cloudy
Temperature: 68.0 F (20.0 C)
Dew Point: 57.9 F (14.4 C)
Relative Humidity: 70%
Pressure (altimeter): 29.83 in. Hg (1010 hPa)
ob: KAKH 260354Z AUTO 20003KT 10SM SCT050 SCT075 20/14 A2983 RMK AO2 SLP095 T02000144
cycle: 4

Station Type Date Time Source
KAKH TAF UTC NOAA

Error!

Example: see airport list